sensor_id;sensor_type;location;lat;lon;timestamp;P1;durP1;ratioP1;P2;durP2;ratioP2
12721;SDS011;6425;50.316;8.114;2023-05-02T00:00:00;20.7;;;18.5;;
12721;SDS011;6425;50.316;8.114;2023-05-02T00:03:00;20.7;;;18.5;;
12721;SDS011;6425;50.316;8.114;2023-05-02T00:06:00;18.4;;;16.7;;
12721;SDS011;6425;50.316;8.114;2023-05-02T00:09:00;18.4;;;16.7;;
12721;SDS011;6425;50.316;8.114;2023-05-02T00:12:00;20.4;;;18.3;;
12721;SDS011;6425;50.316;8.114;2023-05-02T00:15:00;21;;;19;;
12721;SDS011;6425;50.316;8.114;2023-05-02T00:18:00;21;;;19;;
12721;SDS011;6425;50.316;8.114;2023-05-02T00:21:00;23.8;;;21.3;;
12721;SDS011;6425;50.316;8.114;2023-05-02T00:24:00;23.8;;;21.3;;
12721;SDS011;6425;50.316;8.114;2023-05-02T00:27:00;24.7;;;20.5;;
12721;SDS011;6425;50.316;8.114;2023-05-02T00:30:00;27;;;20.9;;
12721;SDS011;6425;50.316;8.114;2023-05-02T00:33:00;27;;;20.9;;
12721;SDS011;6425;50.316;8.114;2023-05-02T00:36:00;22.7;;;19.7;;
12721;SDS011;6425;50.316;8.114;2023-05-02T00:39:00;22.7;;;19.7;;
12721;SDS011;6425;50.316;8.114;2023-05-02T00:42:00;23.8;;;19.9;;
12721;SDS011;6425;50.316;8.114;2023-05-02T00:45:00;22.6;;;19.5;;
12721;SDS011;6425;50.316;8.114;2023-05-02T00:48:00;22.6;;;19.5;;
12721;SDS011;6425;50.316;8.114;2023-05-02T00:51:01;23.1;;;20.5;;
12721;SDS011;6425;50.316;8.114;2023-05-02T00:54:00;23.1;;;20.5;;
12721;SDS011;6425;50.316;8.114;2023-05-02T00:57:00;24.9;;;19.8;;
12721;SDS011;6425;50.316;8.114;2023-05-02T01:00:00;24.9;;;21.5;;
12721;SDS011;6425;50.316;8.114;2023-05-02T01:03:03;24.9;;;21.5;;
12721;SDS011;6425;50.316;8.114;2023-05-02T01:06:03;24;;;20.9;;
12721;SDS011;6425;50.316;8.114;2023-05-02T01:09:01;24;;;20.9;;
12721;SDS011;6425;50.316;8.114;2023-05-02T01:12:00;24.8;;;19.6;;
12721;SDS011;6425;50.316;8.114;2023-05-02T01:15:01;28.7;;;23;;
12721;SDS011;6425;50.316;8.114;2023-05-02T01:18:00;28.7;;;23;;
12721;SDS011;6425;50.316;8.114;2023-05-02T01:21:02;25.4;;;21.6;;
12721;SDS011;6425;50.316;8.114;2023-05-02T01:24:01;25.4;;;21.6;;
12721;SDS011;6425;50.316;8.114;2023-05-02T01:27:00;28.7;;;23.6;;
12721;SDS011;6425;50.316;8.114;2023-05-02T01:30:00;30;;;24.8;;
12721;SDS011;6425;50.316;8.114;2023-05-02T01:33:00;30;;;24.8;;
12721;SDS011;6425;50.316;8.114;2023-05-02T01:36:00;35.2;;;27.9;;
12721;SDS011;6425;50.316;8.114;2023-05-02T01:39:00;35.2;;;27.9;;
12721;SDS011;6425;50.316;8.114;2023-05-02T01:42:00;41.5;;;31.6;;
12721;SDS011;6425;50.316;8.114;2023-05-02T01:45:00;35.8;;;28.9;;
12721;SDS011;6425;50.316;8.114;2023-05-02T01:48:00;35.8;;;28.9;;
12721;SDS011;6425;50.316;8.114;2023-05-02T01:51:00;37.1;;;29.9;;
12721;SDS011;6425;50.316;8.114;2023-05-02T01:54:00;37.1;;;29.9;;
12721;SDS011;6425;50.316;8.114;2023-05-02T01:57:00;41.8;;;33.8;;
12721;SDS011;6425;50.316;8.114;2023-05-02T02:00:00;46.9;;;36.3;;
12721;SDS011;6425;50.316;8.114;2023-05-02T02:03:00;46.9;;;36.3;;
12721;SDS011;6425;50.316;8.114;2023-05-02T02:06:00;42.9;;;32.8;;
12721;SDS011;6425;50.316;8.114;2023-05-02T02:09:00;42.9;;;32.8;;
12721;SDS011;6425;50.316;8.114;2023-05-02T02:12:01;51.7;;;38.7;;
12721;SDS011;6425;50.316;8.114;2023-05-02T02:15:02;45.8;;;35;;
12721;SDS011;6425;50.316;8.114;2023-05-02T02:18:00;45.8;;;35;;
12721;SDS011;6425;50.316;8.114;2023-05-02T02:21:00;51.5;;;36.9;;
12721;SDS011;6425;50.316;8.114;2023-05-02T02:24:00;51.5;;;36.9;;
12721;SDS011;6425;50.316;8.114;2023-05-02T02:27:00;50.7;;;37.1;;
12721;SDS011;6425;50.316;8.114;2023-05-02T02:30:00;49.2;;;35.5;;
12721;SDS011;6425;50.316;8.114;2023-05-02T02:33:00;49.2;;;35.5;;
12721;SDS011;6425;50.316;8.114;2023-05-02T02:36:02;42.6;;;30.3;;
12721;SDS011;6425;50.316;8.114;2023-05-02T02:39:02;44.7;;;32.8;;
12721;SDS011;6425;50.316;8.114;2023-05-02T02:42:02;44.7;;;32.8;;
12721;SDS011;6425;50.316;8.114;2023-05-02T02:45:00;56.8;;;39.3;;
12721;SDS011;6425;50.316;8.114;2023-05-02T02:48:01;56.8;;;39.3;;
12721;SDS011;6425;50.316;8.114;2023-05-02T02:51:02;61.6;;;44.4;;
12721;SDS011;6425;50.316;8.114;2023-05-02T02:54:03;68.9;;;46.2;;
12721;SDS011;6425;50.316;8.114;2023-05-02T02:57:00;68.9;;;46.2;;
12721;SDS011;6425;50.316;8.114;2023-05-02T03:00:00;76.1;;;50.9;;
12721;SDS011;6425;50.316;8.114;2023-05-02T03:03:00;76.1;;;50.9;;
12721;SDS011;6425;50.316;8.114;2023-05-02T03:06:00;60.3;;;43.9;;
12721;SDS011;6425;50.316;8.114;2023-05-02T03:09:00;71.1;;;47.8;;
12721;SDS011;6425;50.316;8.114;2023-05-02T03:12:00;71.1;;;47.8;;
12721;SDS011;6425;50.316;8.114;2023-05-02T03:15:02;64.5;;;45.6;;
12721;SDS011;6425;50.316;8.114;2023-05-02T03:18:00;64.5;;;45.6;;
12721;SDS011;6425;50.316;8.114;2023-05-02T03:21:00;73.1;;;49.4;;
12721;SDS011;6425;50.316;8.114;2023-05-02T03:24:00;83.5;;;53.1;;
12721;SDS011;6425;50.316;8.114;2023-05-02T03:27:00;83.5;;;53.1;;
12721;SDS011;6425;50.316;8.114;2023-05-02T03:30:00;85.1;;;55.4;;
12721;SDS011;6425;50.316;8.114;2023-05-02T03:33:00;85.1;;;55.4;;
12721;SDS011;6425;50.316;8.114;2023-05-02T03:36:00;99.6;;;61;;
12721;SDS011;6425;50.316;8.114;2023-05-02T03:39:00;91.3;;;58.5;;
12721;SDS011;6425;50.316;8.114;2023-05-02T03:42:00;91.3;;;58.5;;
12721;SDS011;6425;50.316;8.114;2023-05-02T03:45:00;86.7;;;58.3;;
12721;SDS011;6425;50.316;8.114;2023-05-02T03:48:00;86.7;;;58.3;;
12721;SDS011;6425;50.316;8.114;2023-05-02T03:51:00;91.1;;;58.8;;
12721;SDS011;6425;50.316;8.114;2023-05-02T03:54:00;103.1;;;64.8;;
12721;SDS011;6425;50.316;8.114;2023-05-02T03:57:00;103.1;;;64.8;;
12721;SDS011;6425;50.316;8.114;2023-05-02T04:00:00;107.2;;;67.9;;
12721;SDS011;6425;50.316;8.114;2023-05-02T04:03:00;107.2;;;67.9;;
12721;SDS011;6425;50.316;8.114;2023-05-02T04:06:00;106.2;;;63.2;;
12721;SDS011;6425;50.316;8.114;2023-05-02T04:09:00;106;;;65.9;;
12721;SDS011;6425;50.316;8.114;2023-05-02T04:12:00;106;;;65.9;;
12721;SDS011;6425;50.316;8.114;2023-05-02T04:15:00;115.9;;;68.4;;
12721;SDS011;6425;50.316;8.114;2023-05-02T04:18:00;115.9;;;68.4;;
12721;SDS011;6425;50.316;8.114;2023-05-02T04:21:00;118.4;;;69.4;;
12721;SDS011;6425;50.316;8.114;2023-05-02T04:24:00;116.6;;;64.6;;
12721;SDS011;6425;50.316;8.114;2023-05-02T04:27:00;116.6;;;64.6;;
12721;SDS011;6425;50.316;8.114;2023-05-02T04:30:00;115.8;;;68.4;;
12721;SDS011;6425;50.316;8.114;2023-05-02T04:33:00;115.8;;;68.4;;
12721;SDS011;6425;50.316;8.114;2023-05-02T04:36:00;117.2;;;66.2;;
12721;SDS011;6425;50.316;8.114;2023-05-02T04:39:00;118.4;;;68.3;;
12721;SDS011;6425;50.316;8.114;2023-05-02T04:42:00;118.4;;;68.3;;
12721;SDS011;6425;50.316;8.114;2023-05-02T04:45:00;114.7;;;65.4;;
12721;SDS011;6425;50.316;8.114;2023-05-02T04:48:00;114.7;;;65.4;;
12721;SDS011;6425;50.316;8.114;2023-05-02T04:51:00;124.3;;;68.4;;
12721;SDS011;6425;50.316;8.114;2023-05-02T04:54:00;121.7;;;69.5;;
12721;SDS011;6425;50.316;8.114;2023-05-02T04:57:00;121.7;;;69.5;;
12721;SDS011;6425;50.316;8.114;2023-05-02T05:00:00;117;;;65.7;;
12721;SDS011;6425;50.316;8.114;2023-05-02T05:03:00;117;;;65.7;;
12721;SDS011;6425;50.316;8.114;2023-05-02T05:06:00;121.5;;;67.9;;
12721;SDS011;6425;50.316;8.114;2023-05-02T05:09:00;125;;;69.3;;
12721;SDS011;6425;50.316;8.114;2023-05-02T05:12:00;125;;;69.3;;
12721;SDS011;6425;50.316;8.114;2023-05-02T05:15:00;124.5;;;68.5;;
12721;SDS011;6425;50.316;8.114;2023-05-02T05:18:00;124.5;;;68.5;;
12721;SDS011;6425;50.316;8.114;2023-05-02T05:21:00;130.5;;;67.8;;
12721;SDS011;6425;50.316;8.114;2023-05-02T05:24:00;129.4;;;71.3;;
12721;SDS011;6425;50.316;8.114;2023-05-02T05:27:00;129.4;;;71.3;;
12721;SDS011;6425;50.316;8.114;2023-05-02T05:30:00;126.7;;;68.6;;
12721;SDS011;6425;50.316;8.114;2023-05-02T05:33:00;126.7;;;68.6;;
12721;SDS011;6425;50.316;8.114;2023-05-02T05:36:03;125.3;;;69.2;;
12721;SDS011;6425;50.316;8.114;2023-05-02T05:39:00;124.6;;;67.4;;
12721;SDS011;6425;50.316;8.114;2023-05-02T05:42:00;124.6;;;67.4;;
12721;SDS011;6425;50.316;8.114;2023-05-02T05:45:00;125.7;;;66.7;;
12721;SDS011;6425;50.316;8.114;2023-05-02T05:48:00;125.7;;;66.7;;
12721;SDS011;6425;50.316;8.114;2023-05-02T05:51:02;113.3;;;62.6;;
12721;SDS011;6425;50.316;8.114;2023-05-02T05:54:00;108.4;;;59.1;;
12721;SDS011;6425;50.316;8.114;2023-05-02T05:57:00;108.4;;;59.1;;
12721;SDS011;6425;50.316;8.114;2023-05-02T06:00:00;103.6;;;57.3;;
12721;SDS011;6425;50.316;8.114;2023-05-02T06:03:00;106.5;;;57.3;;
12721;SDS011;6425;50.316;8.114;2023-05-02T06:06:00;106.5;;;57.3;;
12721;SDS011;6425;50.316;8.114;2023-05-02T06:09:00;109.5;;;60.7;;
12721;SDS011;6425;50.316;8.114;2023-05-02T06:12:00;109.5;;;60.7;;
12721;SDS011;6425;50.316;8.114;2023-05-02T06:15:00;111.6;;;58.5;;
12721;SDS011;6425;50.316;8.114;2023-05-02T06:18:00;110.5;;;59.6;;
12721;SDS011;6425;50.316;8.114;2023-05-02T06:21:02;110.5;;;59.6;;
12721;SDS011;6425;50.316;8.114;2023-05-02T06:24:00;101;;;55;;
12721;SDS011;6425;50.316;8.114;2023-05-02T06:27:00;101;;;55;;
12721;SDS011;6425;50.316;8.114;2023-05-02T06:30:00;100.6;;;52.4;;
12721;SDS011;6425;50.316;8.114;2023-05-02T06:33:00;88.3;;;49.9;;
12721;SDS011;6425;50.316;8.114;2023-05-02T06:36:00;88.3;;;49.9;;
12721;SDS011;6425;50.316;8.114;2023-05-02T06:39:00;78.8;;;43.8;;
12721;SDS011;6425;50.316;8.114;2023-05-02T06:42:00;78.8;;;43.8;;
12721;SDS011;6425;50.316;8.114;2023-05-02T06:45:00;81.3;;;44.7;;
12721;SDS011;6425;50.316;8.114;2023-05-02T06:48:00;82.7;;;46.2;;
12721;SDS011;6425;50.316;8.114;2023-05-02T06:51:00;82.7;;;46.2;;
12721;SDS011;6425;50.316;8.114;2023-05-02T06:54:00;71;;;37.8;;
12721;SDS011;6425;50.316;8.114;2023-05-02T06:57:00;71;;;37.8;;
12721;SDS011;6425;50.316;8.114;2023-05-02T07:00:00;62.8;;;34.5;;
12721;SDS011;6425;50.316;8.114;2023-05-02T07:03:00;62.8;;;34.5;;
12721;SDS011;6425;50.316;8.114;2023-05-02T07:06:00;72;;;37.1;;
12721;SDS011;6425;50.316;8.114;2023-05-02T07:09:00;64.3;;;35.3;;
12721;SDS011;6425;50.316;8.114;2023-05-02T07:12:00;64.3;;;35.3;;
12721;SDS011;6425;50.316;8.114;2023-05-02T07:15:00;51.7;;;28;;
12721;SDS011;6425;50.316;8.114;2023-05-02T07:18:00;58.4;;;30.1;;
12721;SDS011;6425;50.316;8.114;2023-05-02T07:21:00;58.4;;;30.1;;
12721;SDS011;6425;50.316;8.114;2023-05-02T07:24:00;53.6;;;28.4;;
12721;SDS011;6425;50.316;8.114;2023-05-02T07:27:00;53.6;;;28.4;;
12721;SDS011;6425;50.316;8.114;2023-05-02T07:30:00;59.9;;;32.5;;
12721;SDS011;6425;50.316;8.114;2023-05-02T07:33:00;54.9;;;30.4;;
12721;SDS011;6425;50.316;8.114;2023-05-02T07:36:00;54.9;;;30.4;;
12721;SDS011;6425;50.316;8.114;2023-05-02T07:39:00;65.4;;;36.3;;
12721;SDS011;6425;50.316;8.114;2023-05-02T07:42:00;65.4;;;36.3;;
12721;SDS011;6425;50.316;8.114;2023-05-02T07:45:00;58.8;;;31.5;;
12721;SDS011;6425;50.316;8.114;2023-05-02T07:48:00;58.4;;;31.4;;
12721;SDS011;6425;50.316;8.114;2023-05-02T07:51:07;58.4;;;31.4;;
12721;SDS011;6425;50.316;8.114;2023-05-02T07:54:00;55.8;;;29;;
12721;SDS011;6425;50.316;8.114;2023-05-02T07:57:00;55.8;;;29;;
12721;SDS011;6425;50.316;8.114;2023-05-02T08:00:00;50.3;;;29.3;;
12721;SDS011;6425;50.316;8.114;2023-05-02T08:03:00;54.4;;;30.2;;
12721;SDS011;6425;50.316;8.114;2023-05-02T08:06:00;54.4;;;30.2;;
12721;SDS011;6425;50.316;8.114;2023-05-02T08:09:00;43;;;24.7;;
12721;SDS011;6425;50.316;8.114;2023-05-02T08:12:00;43;;;24.7;;
12721;SDS011;6425;50.316;8.114;2023-05-02T08:15:03;44.5;;;26.3;;
12721;SDS011;6425;50.316;8.114;2023-05-02T08:18:00;43.6;;;23.2;;
12721;SDS011;6425;50.316;8.114;2023-05-02T08:21:00;43.6;;;23.2;;
12721;SDS011;6425;50.316;8.114;2023-05-02T08:24:00;47.8;;;27.4;;
12721;SDS011;6425;50.316;8.114;2023-05-02T08:27:00;47.8;;;27.4;;
12721;SDS011;6425;50.316;8.114;2023-05-02T08:30:00;43.1;;;24.8;;
12721;SDS011;6425;50.316;8.114;2023-05-02T08:33:00;41.4;;;23.2;;
12721;SDS011;6425;50.316;8.114;2023-05-02T08:36:00;41.4;;;23.2;;
12721;SDS011;6425;50.316;8.114;2023-05-02T08:39:00;44.6;;;24.8;;
12721;SDS011;6425;50.316;8.114;2023-05-02T08:42:00;44.6;;;24.8;;
12721;SDS011;6425;50.316;8.114;2023-05-02T08:45:00;41.4;;;24.3;;
12721;SDS011;6425;50.316;8.114;2023-05-02T08:48:00;48.6;;;26;;
12721;SDS011;6425;50.316;8.114;2023-05-02T08:51:00;48.6;;;26;;
12721;SDS011;6425;50.316;8.114;2023-05-02T08:54:00;45.7;;;26.8;;
12721;SDS011;6425;50.316;8.114;2023-05-02T08:57:00;45.7;;;26.8;;
12721;SDS011;6425;50.316;8.114;2023-05-02T09:00:00;41.1;;;24.8;;
12721;SDS011;6425;50.316;8.114;2023-05-02T09:03:03;37.7;;;22.9;;
12721;SDS011;6425;50.316;8.114;2023-05-02T09:06:03;37.7;;;22.9;;
12721;SDS011;6425;50.316;8.114;2023-05-02T09:09:00;38.2;;;23.8;;
12721;SDS011;6425;50.316;8.114;2023-05-02T09:12:00;38.2;;;23.8;;
12721;SDS011;6425;50.316;8.114;2023-05-02T09:15:15;28.2;;;18.5;;
12721;SDS011;6425;50.316;8.114;2023-05-02T09:18:00;25.3;;;15;;
12721;SDS011;6425;50.316;8.114;2023-05-02T09:21:00;25.3;;;15;;
12721;SDS011;6425;50.316;8.114;2023-05-02T09:24:00;17.9;;;13.4;;
12721;SDS011;6425;50.316;8.114;2023-05-02T09:27:00;19.5;;;14.8;;
12721;SDS011;6425;50.316;8.114;2023-05-02T09:30:17;19.5;;;14.8;;
12721;SDS011;6425;50.316;8.114;2023-05-02T09:33:00;21.7;;;13.3;;
12721;SDS011;6425;50.316;8.114;2023-05-02T09:36:00;21.7;;;13.3;;
12721;SDS011;6425;50.316;8.114;2023-05-02T09:39:07;24.8;;;16.1;;
12721;SDS011;6425;50.316;8.114;2023-05-02T09:42:00;23.5;;;14.3;;
12721;SDS011;6425;50.316;8.114;2023-05-02T09:45:00;23.5;;;14.3;;
12721;SDS011;6425;50.316;8.114;2023-05-02T09:48:00;24.5;;;14.7;;
12721;SDS011;6425;50.316;8.114;2023-05-02T09:51:00;24.5;;;14.7;;
12721;SDS011;6425;50.316;8.114;2023-05-02T09:54:00;25;;;15.6;;
12721;SDS011;6425;50.316;8.114;2023-05-02T09:57:00;22.6;;;14.7;;
12721;SDS011;6425;50.316;8.114;2023-05-02T10:00:00;22.6;;;14.7;;
12721;SDS011;6425;50.316;8.114;2023-05-02T10:03:00;24.3;;;15;;
12721;SDS011;6425;50.316;8.114;2023-05-02T10:06:00;24.3;;;15;;
12721;SDS011;6425;50.316;8.114;2023-05-02T10:09:00;24.3;;;15.2;;
12721;SDS011;6425;50.316;8.114;2023-05-02T10:12:00;28.1;;;17.2;;
12721;SDS011;6425;50.316;8.114;2023-05-02T10:15:02;28.1;;;17.2;;
12721;SDS011;6425;50.316;8.114;2023-05-02T10:18:00;24.9;;;16.8;;
12721;SDS011;6425;50.316;8.114;2023-05-02T10:21:00;24.9;;;16.8;;
12721;SDS011;6425;50.316;8.114;2023-05-02T10:24:00;21.9;;;13.4;;
12721;SDS011;6425;50.316;8.114;2023-05-02T10:27:00;24.2;;;15.8;;
12721;SDS011;6425;50.316;8.114;2023-05-02T10:30:00;24.2;;;15.8;;
12721;SDS011;6425;50.316;8.114;2023-05-02T10:33:00;12.2;;;9;;
12721;SDS011;6425;50.316;8.114;2023-05-02T10:36:00;12.2;;;9;;
12721;SDS011;6425;50.316;8.114;2023-05-02T10:39:00;12.2;;;9.2;;
12721;SDS011;6425;50.316;8.114;2023-05-02T10:42:00;14.4;;;9.7;;
12721;SDS011;6425;50.316;8.114;2023-05-02T10:45:00;14.4;;;9.7;;
12721;SDS011;6425;50.316;8.114;2023-05-02T10:48:16;15.1;;;10.6;;
12721;SDS011;6425;50.316;8.114;2023-05-02T10:51:00;15.1;;;10.6;;
12721;SDS011;6425;50.316;8.114;2023-05-02T10:54:31;14.3;;;9.8;;
12721;SDS011;6425;50.316;8.114;2023-05-02T10:57:00;14.6;;;8.9;;
12721;SDS011;6425;50.316;8.114;2023-05-02T11:00:03;14.6;;;8.9;;
12721;SDS011;6425;50.316;8.114;2023-05-02T11:03:00;12.7;;;9.6;;
12721;SDS011;6425;50.316;8.114;2023-05-02T11:06:03;12.7;;;9.6;;
12721;SDS011;6425;50.316;8.114;2023-05-02T11:09:31;6.8;;;6.1;;
12721;SDS011;6425;50.316;8.114;2023-05-02T11:12:00;6.6;;;6;;
12721;SDS011;6425;50.316;8.114;2023-05-02T11:15:00;6.6;;;6;;
12721;SDS011;6425;50.316;8.114;2023-05-02T11:18:00;4;;;3.6;;
12721;SDS011;6425;50.316;8.114;2023-05-02T11:21:23;4;;;3.6;;
12721;SDS011;6425;50.316;8.114;2023-05-02T11:25:05;4.3;;;3.7;;
12721;SDS011;6425;50.316;8.114;2023-05-02T11:27:37;5.5;;;5;;
12721;SDS011;6425;50.316;8.114;2023-05-02T11:30:00;5.5;;;5;;
12721;SDS011;6425;50.316;8.114;2023-05-02T11:33:16;6.5;;;5.9;;
12721;SDS011;6425;50.316;8.114;2023-05-02T11:36:00;6.5;;;5.9;;
12721;SDS011;6425;50.316;8.114;2023-05-02T11:39:00;6.6;;;5.8;;
12721;SDS011;6425;50.316;8.114;2023-05-02T11:42:00;8.4;;;7.5;;
12721;SDS011;6425;50.316;8.114;2023-05-02T11:45:00;8.4;;;7.5;;
12721;SDS011;6425;50.316;8.114;2023-05-02T11:48:00;4.9;;;4.3;;
12721;SDS011;6425;50.316;8.114;2023-05-02T11:51:00;4.9;;;4.3;;
12721;SDS011;6425;50.316;8.114;2023-05-02T11:54:00;10.8;;;9.7;;
12721;SDS011;6425;50.316;8.114;2023-05-02T11:57:00;9.2;;;7.4;;
12721;SDS011;6425;50.316;8.114;2023-05-02T12:00:00;9.2;;;7.4;;
12721;SDS011;6425;50.316;8.114;2023-05-02T12:03:00;10.1;;;9.2;;
12721;SDS011;6425;50.316;8.114;2023-05-02T12:06:07;10.1;;;9.2;;
12721;SDS011;6425;50.316;8.114;2023-05-02T12:09:07;8.4;;;7.5;;
12721;SDS011;6425;50.316;8.114;2023-05-02T12:12:00;8.9;;;7.8;;
12721;SDS011;6425;50.316;8.114;2023-05-02T12:15:02;8.9;;;7.8;;
12721;SDS011;6425;50.316;8.114;2023-05-02T12:18:00;10.2;;;9.2;;
12721;SDS011;6425;50.316;8.114;2023-05-02T12:21:00;10.2;;;9.2;;
12721;SDS011;6425;50.316;8.114;2023-05-02T12:24:00;8.8;;;7.3;;
12721;SDS011;6425;50.316;8.114;2023-05-02T12:27:07;14;;;10.7;;
12721;SDS011;6425;50.316;8.114;2023-05-02T12:30:00;14;;;10.7;;
12721;SDS011;6425;50.316;8.114;2023-05-02T12:33:00;13.3;;;9.4;;
12721;SDS011;6425;50.316;8.114;2023-05-02T12:36:04;13.3;;;9.4;;
12721;SDS011;6425;50.316;8.114;2023-05-02T12:39:00;13.3;;;9.8;;
12721;SDS011;6425;50.316;8.114;2023-05-02T12:45:15;13.3;;;9.8;;
12721;SDS011;6425;50.316;8.114;2023-05-02T12:48:00;11.5;;;9.2;;
12721;SDS011;6425;50.316;8.114;2023-05-02T12:51:00;11.9;;;10.7;;
12721;SDS011;6425;50.316;8.114;2023-05-02T12:54:00;11.9;;;10.7;;
12721;SDS011;6425;50.316;8.114;2023-05-02T12:57:00;11.9;;;10.5;;
12721;SDS011;6425;50.316;8.114;2023-05-02T13:00:00;11.3;;;9.1;;
12721;SDS011;6425;50.316;8.114;2023-05-02T13:03:00;11.3;;;9.1;;
12721;SDS011;6425;50.316;8.114;2023-05-02T13:06:00;10.8;;;9.6;;
12721;SDS011;6425;50.316;8.114;2023-05-02T13:09:00;10.8;;;9.6;;
12721;SDS011;6425;50.316;8.114;2023-05-02T13:12:00;11.9;;;10.7;;
12721;SDS011;6425;50.316;8.114;2023-05-02T13:15:00;9.7;;;8.7;;
12721;SDS011;6425;50.316;8.114;2023-05-02T13:18:00;9.7;;;8.7;;
12721;SDS011;6425;50.316;8.114;2023-05-02T13:21:00;8.2;;;7.4;;
12721;SDS011;6425;50.316;8.114;2023-05-02T13:24:00;8.2;;;7.4;;
12721;SDS011;6425;50.316;8.114;2023-05-02T13:27:00;7.9;;;7.1;;
12721;SDS011;6425;50.316;8.114;2023-05-02T13:30:00;10.1;;;8.4;;
12721;SDS011;6425;50.316;8.114;2023-05-02T13:33:00;10.1;;;8.4;;
12721;SDS011;6425;50.316;8.114;2023-05-02T13:36:00;8.5;;;6.9;;
12721;SDS011;6425;50.316;8.114;2023-05-02T13:39:00;8.5;;;6.9;;
12721;SDS011;6425;50.316;8.114;2023-05-02T13:42:00;10.3;;;9.2;;
12721;SDS011;6425;50.316;8.114;2023-05-02T13:45:00;7.8;;;7.1;;
12721;SDS011;6425;50.316;8.114;2023-05-02T13:48:00;7.8;;;7.1;;
12721;SDS011;6425;50.316;8.114;2023-05-02T13:51:00;10.3;;;9.2;;
12721;SDS011;6425;50.316;8.114;2023-05-02T13:54:00;10.3;;;9.2;;
12721;SDS011;6425;50.316;8.114;2023-05-02T13:57:00;11.5;;;10.3;;
12721;SDS011;6425;50.316;8.114;2023-05-02T14:00:00;10.1;;;9.1;;
12721;SDS011;6425;50.316;8.114;2023-05-02T14:03:00;10.1;;;9.1;;
12721;SDS011;6425;50.316;8.114;2023-05-02T14:06:00;7.5;;;6.8;;
12721;SDS011;6425;50.316;8.114;2023-05-02T14:09:00;7.5;;;6.8;;
12721;SDS011;6425;50.316;8.114;2023-05-02T14:12:00;9;;;8.2;;
12721;SDS011;6425;50.316;8.114;2023-05-02T14:15:00;6.1;;;5.5;;
12721;SDS011;6425;50.316;8.114;2023-05-02T14:18:00;6.1;;;5.5;;
12721;SDS011;6425;50.316;8.114;2023-05-02T14:21:00;7.8;;;7;;
12721;SDS011;6425;50.316;8.114;2023-05-02T14:24:00;7.8;;;7;;
12721;SDS011;6425;50.316;8.114;2023-05-02T14:27:00;7.4;;;6.3;;
12721;SDS011;6425;50.316;8.114;2023-05-02T14:30:00;9.7;;;7;;
12721;SDS011;6425;50.316;8.114;2023-05-02T14:33:00;9.7;;;7;;
12721;SDS011;6425;50.316;8.114;2023-05-02T14:36:00;5.6;;;5.1;;
12721;SDS011;6425;50.316;8.114;2023-05-02T14:39:00;5.6;;;5.1;;
12721;SDS011;6425;50.316;8.114;2023-05-02T14:42:00;6.1;;;5.5;;
12721;SDS011;6425;50.316;8.114;2023-05-02T14:45:00;7;;;6.2;;
12721;SDS011;6425;50.316;8.114;2023-05-02T14:48:00;7;;;6.2;;
12721;SDS011;6425;50.316;8.114;2023-05-02T14:51:01;8.9;;;7.4;;
12721;SDS011;6425;50.316;8.114;2023-05-02T14:54:00;8.9;;;7.4;;
12721;SDS011;6425;50.316;8.114;2023-05-02T14:57:00;8.5;;;7;;
12721;SDS011;6425;50.316;8.114;2023-05-02T15:00:00;6.8;;;6.1;;
12721;SDS011;6425;50.316;8.114;2023-05-02T15:03:00;6.8;;;6.1;;
12721;SDS011;6425;50.316;8.114;2023-05-02T15:06:00;9.7;;;7.8;;
12721;SDS011;6425;50.316;8.114;2023-05-02T15:09:00;9.7;;;7.8;;
12721;SDS011;6425;50.316;8.114;2023-05-02T15:12:00;8.1;;;6.3;;
12721;SDS011;6425;50.316;8.114;2023-05-02T15:15:00;8.7;;;7.8;;
12721;SDS011;6425;50.316;8.114;2023-05-02T15:18:00;8.7;;;7.8;;
12721;SDS011;6425;50.316;8.114;2023-05-02T15:21:00;8.6;;;6.4;;
12721;SDS011;6425;50.316;8.114;2023-05-02T15:24:00;8.6;;;6.4;;
12721;SDS011;6425;50.316;8.114;2023-05-02T15:27:00;7.9;;;7.1;;
12721;SDS011;6425;50.316;8.114;2023-05-02T15:30:00;8.4;;;5.9;;
12721;SDS011;6425;50.316;8.114;2023-05-02T15:33:00;8.4;;;5.9;;
12721;SDS011;6425;50.316;8.114;2023-05-02T15:36:00;10.6;;;8.7;;
12721;SDS011;6425;50.316;8.114;2023-05-02T15:39:00;10.6;;;8.7;;
12721;SDS011;6425;50.316;8.114;2023-05-02T15:42:01;8;;;6.7;;
12721;SDS011;6425;50.316;8.114;2023-05-02T15:45:00;13.2;;;9.1;;
12721;SDS011;6425;50.316;8.114;2023-05-02T15:48:00;13.2;;;9.1;;
12721;SDS011;6425;50.316;8.114;2023-05-02T15:51:00;9.6;;;7.4;;
12721;SDS011;6425;50.316;8.114;2023-05-02T15:54:00;9.6;;;7.4;;
12721;SDS011;6425;50.316;8.114;2023-05-02T15:57:00;6.8;;;6.1;;
12721;SDS011;6425;50.316;8.114;2023-05-02T16:00:00;7.9;;;7.1;;
12721;SDS011;6425;50.316;8.114;2023-05-02T16:03:00;7.9;;;7.1;;
12721;SDS011;6425;50.316;8.114;2023-05-02T16:06:00;9.2;;;7.9;;
12721;SDS011;6425;50.316;8.114;2023-05-02T16:09:00;9.2;;;7.9;;
12721;SDS011;6425;50.316;8.114;2023-05-02T16:12:00;7.3;;;5.7;;
12721;SDS011;6425;50.316;8.114;2023-05-02T16:15:00;15.3;;;10.7;;
12721;SDS011;6425;50.316;8.114;2023-05-02T16:18:00;15.3;;;10.7;;
12721;SDS011;6425;50.316;8.114;2023-05-02T16:21:00;8.2;;;7.4;;
12721;SDS011;6425;50.316;8.114;2023-05-02T16:24:00;7.9;;;7.1;;
12721;SDS011;6425;50.316;8.114;2023-05-02T16:27:00;7.1;;;6.2;;
12721;SDS011;6425;50.316;8.114;2023-05-02T16:30:00;11.1;;;10.1;;
12721;SDS011;6425;50.316;8.114;2023-05-02T16:33:00;11.1;;;10.1;;
12721;SDS011;6425;50.316;8.114;2023-05-02T16:36:00;9.9;;;8.7;;
12721;SDS011;6425;50.316;8.114;2023-05-02T16:39:00;10.4;;;8.1;;
12721;SDS011;6425;50.316;8.114;2023-05-02T16:42:00;10.4;;;8.1;;
12721;SDS011;6425;50.316;8.114;2023-05-02T16:45:00;9.7;;;8.7;;
12721;SDS011;6425;50.316;8.114;2023-05-02T16:48:00;9.7;;;8.7;;
12721;SDS011;6425;50.316;8.114;2023-05-02T16:51:00;7.8;;;6.1;;
12721;SDS011;6425;50.316;8.114;2023-05-02T16:54:00;10.9;;;8.4;;
12721;SDS011;6425;50.316;8.114;2023-05-02T16:57:00;10.9;;;8.4;;
12721;SDS011;6425;50.316;8.114;2023-05-02T17:00:00;10.4;;;7.6;;
12721;SDS011;6425;50.316;8.114;2023-05-02T17:03:00;10.4;;;7.6;;
12721;SDS011;6425;50.316;8.114;2023-05-02T17:06:00;8.6;;;6.9;;
12721;SDS011;6425;50.316;8.114;2023-05-02T17:09:00;9.4;;;8.4;;
12721;SDS011;6425;50.316;8.114;2023-05-02T17:12:00;9.4;;;8.4;;
12721;SDS011;6425;50.316;8.114;2023-05-02T17:15:00;6.6;;;6;;
12721;SDS011;6425;50.316;8.114;2023-05-02T17:18:00;6.6;;;6;;
12721;SDS011;6425;50.316;8.114;2023-05-02T17:21:00;6.7;;;5.7;;
12721;SDS011;6425;50.316;8.114;2023-05-02T17:24:00;10.1;;;6.4;;
12721;SDS011;6425;50.316;8.114;2023-05-02T17:27:00;10.1;;;6.4;;
12721;SDS011;6425;50.316;8.114;2023-05-02T17:30:00;6.1;;;4.3;;
12721;SDS011;6425;50.316;8.114;2023-05-02T17:33:00;6.1;;;4.3;;
12721;SDS011;6425;50.316;8.114;2023-05-02T17:36:00;6.9;;;5.4;;
12721;SDS011;6425;50.316;8.114;2023-05-02T17:39:00;5.5;;;4.7;;
12721;SDS011;6425;50.316;8.114;2023-05-02T17:42:00;5.5;;;4.7;;
12721;SDS011;6425;50.316;8.114;2023-05-02T17:45:00;6.7;;;5.8;;
12721;SDS011;6425;50.316;8.114;2023-05-02T17:48:00;6.7;;;5.8;;
12721;SDS011;6425;50.316;8.114;2023-05-02T17:51:00;7.4;;;5.2;;
12721;SDS011;6425;50.316;8.114;2023-05-02T17:54:00;6.4;;;5.7;;
12721;SDS011;6425;50.316;8.114;2023-05-02T17:57:00;6.4;;;5.7;;
12721;SDS011;6425;50.316;8.114;2023-05-02T18:00:00;5.5;;;5;;
12721;SDS011;6425;50.316;8.114;2023-05-02T18:03:00;5.5;;;5;;
12721;SDS011;6425;50.316;8.114;2023-05-02T18:06:00;6.2;;;4.5;;
12721;SDS011;6425;50.316;8.114;2023-05-02T18:09:00;7.5;;;5.6;;
12721;SDS011;6425;50.316;8.114;2023-05-02T18:12:00;7.5;;;5.6;;
12721;SDS011;6425;50.316;8.114;2023-05-02T18:15:00;8.4;;;5.6;;
12721;SDS011;6425;50.316;8.114;2023-05-02T18:18:00;8.4;;;5.6;;
12721;SDS011;6425;50.316;8.114;2023-05-02T18:21:00;6.7;;;5.6;;
12721;SDS011;6425;50.316;8.114;2023-05-02T18:24:00;6.4;;;5.8;;
12721;SDS011;6425;50.316;8.114;2023-05-02T18:27:00;6.4;;;5.8;;
12721;SDS011;6425;50.316;8.114;2023-05-02T18:30:00;10.3;;;9.3;;
12721;SDS011;6425;50.316;8.114;2023-05-02T18:33:00;10.3;;;9.3;;
12721;SDS011;6425;50.316;8.114;2023-05-02T18:36:00;8.4;;;6.7;;